sensor_id;sensor_type;location;lat;lon;timestamp;P1;durP1;ratioP1;P2;durP2;ratioP2
1799;SDS011;919;48.274;12.292;2023-08-12T00:02:17;1.80;;;1.70;;
1799;SDS011;919;48.274;12.292;2023-08-12T00:04:46;1.67;;;1.57;;
1799;SDS011;919;48.274;12.292;2023-08-12T00:07:13;1.90;;;1.80;;
1799;SDS011;919;48.274;12.292;2023-08-12T00:09:40;2.03;;;1.83;;
1799;SDS011;919;48.274;12.292;2023-08-12T00:12:07;1.67;;;1.57;;
1799;SDS011;919;48.274;12.292;2023-08-12T00:14:36;2.00;;;1.90;;
1799;SDS011;919;48.274;12.292;2023-08-12T00:17:04;7.13;;;2.73;;
1799;SDS011;919;48.274;12.292;2023-08-12T00:19:32;2.47;;;2.27;;
1799;SDS011;919;48.274;12.292;2023-08-12T00:21:59;2.40;;;2.20;;
1799;SDS011;919;48.274;12.292;2023-08-12T00:24:27;3.03;;;2.83;;
1799;SDS011;919;48.274;12.292;2023-08-12T00:26:57;2.20;;;2.10;;
1799;SDS011;919;48.274;12.292;2023-08-12T00:29:24;2.33;;;2.20;;
1799;SDS011;919;48.274;12.292;2023-08-12T00:31:53;2.23;;;2.00;;
1799;SDS011;919;48.274;12.292;2023-08-12T00:34:21;1.97;;;1.87;;
1799;SDS011;919;48.274;12.292;2023-08-12T00:36:48;2.30;;;2.10;;
1799;SDS011;919;48.274;12.292;2023-08-12T00:39:16;2.20;;;2.00;;
1799;SDS011;919;48.274;12.292;2023-08-12T00:41:42;1.70;;;1.60;;
1799;SDS011;919;48.274;12.292;2023-08-12T00:44:10;2.20;;;2.10;;
1799;SDS011;919;48.274;12.292;2023-08-12T00:46:37;1.60;;;1.50;;
1799;SDS011;919;48.274;12.292;2023-08-12T00:49:08;2.30;;;2.10;;
1799;SDS011;919;48.274;12.292;2023-08-12T00:51:35;1.70;;;1.60;;
1799;SDS011;919;48.274;12.292;2023-08-12T00:54:04;1.70;;;1.60;;
1799;SDS011;919;48.274;12.292;2023-08-12T00:56:33;1.63;;;1.53;;
1799;SDS011;919;48.274;12.292;2023-08-12T00:59:03;1.47;;;1.37;;
1799;SDS011;919;48.274;12.292;2023-08-12T01:01:31;1.20;;;1.20;;
1799;SDS011;919;48.274;12.292;2023-08-12T01:04:01;0.90;;;0.90;;
1799;SDS011;919;48.274;12.292;2023-08-12T01:06:29;0.80;;;0.80;;
1799;SDS011;919;48.274;12.292;2023-08-12T01:08:58;1.30;;;1.20;;
1799;SDS011;919;48.274;12.292;2023-08-12T01:11:32;1.70;;;1.60;;
1799;SDS011;919;48.274;12.292;2023-08-12T01:14:07;1.33;;;1.30;;
1799;SDS011;919;48.274;12.292;2023-08-12T01:16:42;1.60;;;1.50;;
1799;SDS011;919;48.274;12.292;2023-08-12T01:19:15;3.10;;;1.50;;
1799;SDS011;919;48.274;12.292;2023-08-12T01:21:52;2.07;;;1.97;;
1799;SDS011;919;48.274;12.292;2023-08-12T01:24:24;2.13;;;1.93;;
1799;SDS011;919;48.274;12.292;2023-08-12T01:26:51;2.17;;;1.97;;
1799;SDS011;919;48.274;12.292;2023-08-12T01:29:20;2.07;;;1.97;;
1799;SDS011;919;48.274;12.292;2023-08-12T01:31:48;1.50;;;1.40;;
1799;SDS011;919;48.274;12.292;2023-08-12T01:34:25;2.30;;;1.80;;
1799;SDS011;919;48.274;12.292;2023-08-12T01:36:58;1.60;;;1.50;;
1799;SDS011;919;48.274;12.292;2023-08-12T01:39:30;1.77;;;1.67;;
1799;SDS011;919;48.274;12.292;2023-08-12T01:41:59;2.10;;;1.70;;
1799;SDS011;919;48.274;12.292;2023-08-12T01:44:27;1.87;;;1.77;;
1799;SDS011;919;48.274;12.292;2023-08-12T01:46:55;1.80;;;1.70;;
1799;SDS011;919;48.274;12.292;2023-08-12T01:49:22;1.80;;;1.70;;
1799;SDS011;919;48.274;12.292;2023-08-12T01:51:50;1.73;;;1.63;;
1799;SDS011;919;48.274;12.292;2023-08-12T01:54:18;2.30;;;1.53;;
1799;SDS011;919;48.274;12.292;2023-08-12T01:56:47;2.27;;;2.07;;
1799;SDS011;919;48.274;12.292;2023-08-12T01:59:15;1.50;;;1.40;;
1799;SDS011;919;48.274;12.292;2023-08-12T02:01:42;2.00;;;1.90;;
1799;SDS011;919;48.274;12.292;2023-08-12T02:04:10;1.97;;;1.80;;
1799;SDS011;919;48.274;12.292;2023-08-12T02:06:37;2.30;;;2.10;;
1799;SDS011;919;48.274;12.292;2023-08-12T02:09:05;2.93;;;2.30;;
1799;SDS011;919;48.274;12.292;2023-08-12T02:11:32;1.60;;;1.50;;
1799;SDS011;919;48.274;12.292;2023-08-12T02:14:01;1.43;;;1.33;;
1799;SDS011;919;48.274;12.292;2023-08-12T02:16:28;4.70;;;2.23;;
1799;SDS011;919;48.274;12.292;2023-08-12T02:18:56;1.90;;;1.80;;
1799;SDS011;919;48.274;12.292;2023-08-12T02:21:23;1.80;;;1.70;;
1799;SDS011;919;48.274;12.292;2023-08-12T02:23:50;1.60;;;1.50;;
1799;SDS011;919;48.274;12.292;2023-08-12T02:26:17;2.10;;;1.50;;
1799;SDS011;919;48.274;12.292;2023-08-12T02:28:45;1.90;;;1.80;;
1799;SDS011;919;48.274;12.292;2023-08-12T02:31:14;1.67;;;1.57;;
1799;SDS011;919;48.274;12.292;2023-08-12T02:33:42;3.10;;;2.77;;
1799;SDS011;919;48.274;12.292;2023-08-12T02:36:10;2.80;;;2.60;;
1799;SDS011;919;48.274;12.292;2023-08-12T02:38:38;2.80;;;2.60;;
1799;SDS011;919;48.274;12.292;2023-08-12T02:41:05;2.43;;;2.23;;
1799;SDS011;919;48.274;12.292;2023-08-12T02:43:32;2.50;;;2.30;;
1799;SDS011;919;48.274;12.292;2023-08-12T02:45:59;2.40;;;2.13;;
1799;SDS011;919;48.274;12.292;2023-08-12T02:48:28;2.40;;;2.20;;
1799;SDS011;919;48.274;12.292;2023-08-12T02:50:55;1.60;;;1.50;;
1799;SDS011;919;48.274;12.292;2023-08-12T02:53:22;1.83;;;1.70;;
1799;SDS011;919;48.274;12.292;2023-08-12T02:55:50;2.00;;;1.90;;
1799;SDS011;919;48.274;12.292;2023-08-12T02:58:17;1.73;;;1.50;;
1799;SDS011;919;48.274;12.292;2023-08-12T03:00:44;1.90;;;1.80;;
1799;SDS011;919;48.274;12.292;2023-08-12T03:03:11;3.20;;;2.90;;
1799;SDS011;919;48.274;12.292;2023-08-12T03:05:40;2.50;;;2.30;;
1799;SDS011;919;48.274;12.292;2023-08-12T03:08:08;2.17;;;2.00;;
1799;SDS011;919;48.274;12.292;2023-08-12T03:10:36;2.60;;;2.00;;
1799;SDS011;919;48.274;12.292;2023-08-12T03:13:04;1.87;;;1.77;;
1799;SDS011;919;48.274;12.292;2023-08-12T03:15:33;2.33;;;1.67;;
1799;SDS011;919;48.274;12.292;2023-08-12T03:18:00;1.90;;;1.80;;
1799;SDS011;919;48.274;12.292;2023-08-12T03:20:28;1.70;;;1.60;;
1799;SDS011;919;48.274;12.292;2023-08-12T03:22:56;1.70;;;1.60;;
1799;SDS011;919;48.274;12.292;2023-08-12T03:25:25;1.40;;;1.30;;
1799;SDS011;919;48.274;12.292;2023-08-12T03:27:52;2.00;;;1.87;;
1799;SDS011;919;48.274;12.292;2023-08-12T03:30:20;1.70;;;1.60;;
1799;SDS011;919;48.274;12.292;2023-08-12T03:32:47;1.53;;;1.43;;
1799;SDS011;919;48.274;12.292;2023-08-12T03:35:15;1.33;;;1.23;;
1799;SDS011;919;48.274;12.292;2023-08-12T03:37:42;0.93;;;0.93;;
1799;SDS011;919;48.274;12.292;2023-08-12T03:40:11;1.30;;;1.20;;
1799;SDS011;919;48.274;12.292;2023-08-12T03:42:39;1.10;;;1.10;;
1799;SDS011;919;48.274;12.292;2023-08-12T03:45:06;1.17;;;1.13;;
1799;SDS011;919;48.274;12.292;2023-08-12T03:47:36;1.23;;;1.23;;
1799;SDS011;919;48.274;12.292;2023-08-12T03:50:03;1.50;;;1.40;;
1799;SDS011;919;48.274;12.292;2023-08-12T03:52:32;1.20;;;1.20;;
1799;SDS011;919;48.274;12.292;2023-08-12T03:55:00;1.50;;;1.40;;
1799;SDS011;919;48.274;12.292;2023-08-12T03:57:29;1.90;;;1.80;;
1799;SDS011;919;48.274;12.292;2023-08-12T03:59:56;2.07;;;1.63;;
1799;SDS011;919;48.274;12.292;2023-08-12T04:02:24;3.90;;;2.40;;
1799;SDS011;919;48.274;12.292;2023-08-12T04:04:51;3.20;;;2.07;;
1799;SDS011;919;48.274;12.292;2023-08-12T04:07:19;1.97;;;1.77;;
1799;SDS011;919;48.274;12.292;2023-08-12T04:09:46;2.20;;;2.00;;
1799;SDS011;919;48.274;12.292;2023-08-12T04:12:13;6.33;;;2.23;;
1799;SDS011;919;48.274;12.292;2023-08-12T04:14:42;2.43;;;2.23;;
1799;SDS011;919;48.274;12.292;2023-08-12T04:17:09;4.70;;;2.00;;
1799;SDS011;919;48.274;12.292;2023-08-12T04:19:36;3.00;;;2.20;;
1799;SDS011;919;48.274;12.292;2023-08-12T04:22:03;3.87;;;2.30;;
1799;SDS011;919;48.274;12.292;2023-08-12T04:24:30;2.27;;;2.07;;
1799;SDS011;919;48.274;12.292;2023-08-12T04:26:57;4.20;;;2.70;;
1799;SDS011;919;48.274;12.292;2023-08-12T04:29:24;2.27;;;2.17;;
1799;SDS011;919;48.274;12.292;2023-08-12T04:31:52;2.00;;;1.90;;
1799;SDS011;919;48.274;12.292;2023-08-12T04:34:18;2.30;;;2.10;;
1799;SDS011;919;48.274;12.292;2023-08-12T04:36:45;4.77;;;2.90;;
1799;SDS011;919;48.274;12.292;2023-08-12T04:39:12;3.10;;;2.80;;
1799;SDS011;919;48.274;12.292;2023-08-12T04:41:39;3.20;;;2.87;;
1799;SDS011;919;48.274;12.292;2023-08-12T04:44:06;4.73;;;3.53;;
1799;SDS011;919;48.274;12.292;2023-08-12T04:46:33;2.90;;;2.70;;
1799;SDS011;919;48.274;12.292;2023-08-12T04:49:01;2.83;;;2.63;;
1799;SDS011;919;48.274;12.292;2023-08-12T04:51:27;2.53;;;2.33;;
1799;SDS011;919;48.274;12.292;2023-08-12T04:53:54;2.37;;;2.17;;
1799;SDS011;919;48.274;12.292;2023-08-12T04:56:22;2.27;;;2.13;;
1799;SDS011;919;48.274;12.292;2023-08-12T04:58:50;2.70;;;2.50;;
1799;SDS011;919;48.274;12.292;2023-08-12T05:01:17;2.33;;;2.20;;
1799;SDS011;919;48.274;12.292;2023-08-12T05:03:43;2.50;;;2.30;;
1799;SDS011;919;48.274;12.292;2023-08-12T05:06:11;2.77;;;2.57;;
1799;SDS011;919;48.274;12.292;2023-08-12T05:08:38;2.90;;;2.70;;
1799;SDS011;919;48.274;12.292;2023-08-12T05:11:07;4.87;;;3.60;;
1799;SDS011;919;48.274;12.292;2023-08-12T05:13:34;3.67;;;3.37;;
1799;SDS011;919;48.274;12.292;2023-08-12T05:16:01;4.00;;;3.70;;
1799;SDS011;919;48.274;12.292;2023-08-12T05:18:35;4.43;;;4.07;;
1799;SDS011;919;48.274;12.292;2023-08-12T05:21:03;4.50;;;4.00;;
1799;SDS011;919;48.274;12.292;2023-08-12T05:23:32;4.30;;;3.90;;
1799;SDS011;919;48.274;12.292;2023-08-12T05:25:59;3.70;;;3.20;;
1799;SDS011;919;48.274;12.292;2023-08-12T05:28:27;5.27;;;4.87;;
1799;SDS011;919;48.274;12.292;2023-08-12T05:30:54;4.50;;;4.10;;
1799;SDS011;919;48.274;12.292;2023-08-12T05:33:21;5.63;;;5.07;;
1799;SDS011;919;48.274;12.292;2023-08-12T05:35:49;5.10;;;4.60;;
1799;SDS011;919;48.274;12.292;2023-08-12T05:38:16;4.13;;;3.83;;
1799;SDS011;919;48.274;12.292;2023-08-12T05:40:45;5.10;;;3.90;;
1799;SDS011;919;48.274;12.292;2023-08-12T05:43:13;4.63;;;4.27;;
1799;SDS011;919;48.274;12.292;2023-08-12T05:45:41;4.53;;;4.13;;
1799;SDS011;919;48.274;12.292;2023-08-12T05:48:14;6.17;;;5.53;;
1799;SDS011;919;48.274;12.292;2023-08-12T05:50:41;8.20;;;7.40;;
1799;SDS011;919;48.274;12.292;2023-08-12T05:53:08;7.00;;;6.40;;
1799;SDS011;919;48.274;12.292;2023-08-12T05:55:35;6.00;;;5.50;;
1799;SDS011;919;48.274;12.292;2023-08-12T05:58:04;7.33;;;6.57;;
1799;SDS011;919;48.274;12.292;2023-08-12T06:00:32;7.23;;;6.53;;
1799;SDS011;919;48.274;12.292;2023-08-12T06:02:59;8.00;;;7.20;;
1799;SDS011;919;48.274;12.292;2023-08-12T06:05:26;8.30;;;7.43;;
1799;SDS011;919;48.274;12.292;2023-08-12T06:07:54;8.63;;;7.70;;
1799;SDS011;919;48.274;12.292;2023-08-12T06:10:21;7.63;;;6.83;;
1799;SDS011;919;48.274;12.292;2023-08-12T06:12:49;8.00;;;7.20;;
1799;SDS011;919;48.274;12.292;2023-08-12T06:15:18;8.10;;;7.40;;
1799;SDS011;919;48.274;12.292;2023-08-12T06:17:46;9.03;;;8.20;;
1799;SDS011;919;48.274;12.292;2023-08-12T06:20:14;8.17;;;7.37;;
1799;SDS011;919;48.274;12.292;2023-08-12T06:22:42;9.60;;;7.73;;
1799;SDS011;919;48.274;12.292;2023-08-12T06:25:09;9.27;;;8.47;;
1799;SDS011;919;48.274;12.292;2023-08-12T06:27:36;9.20;;;8.30;;
1799;SDS011;919;48.274;12.292;2023-08-12T06:30:03;6.90;;;6.30;;
1799;SDS011;919;48.274;12.292;2023-08-12T06:32:33;6.73;;;6.13;;
1799;SDS011;919;48.274;12.292;2023-08-12T06:35:00;9.83;;;7.47;;
1799;SDS011;919;48.274;12.292;2023-08-12T06:37:26;7.97;;;7.17;;
1799;SDS011;919;48.274;12.292;2023-08-12T06:39:53;6.73;;;6.13;;
1799;SDS011;919;48.274;12.292;2023-08-12T06:42:20;6.80;;;6.20;;
1799;SDS011;919;48.274;12.292;2023-08-12T06:44:55;6.97;;;6.33;;
1799;SDS011;919;48.274;12.292;2023-08-12T06:47:22;6.73;;;6.03;;
1799;SDS011;919;48.274;12.292;2023-08-12T06:49:52;8.03;;;7.23;;
1799;SDS011;919;48.274;12.292;2023-08-12T06:52:19;7.57;;;6.50;;
1799;SDS011;919;48.274;12.292;2023-08-12T06:54:45;9.17;;;7.27;;
1799;SDS011;919;48.274;12.292;2023-08-12T06:57:12;6.90;;;6.30;;
1799;SDS011;919;48.274;12.292;2023-08-12T06:59:39;6.73;;;6.13;;
1799;SDS011;919;48.274;12.292;2023-08-12T07:02:06;7.03;;;6.33;;
1799;SDS011;919;48.274;12.292;2023-08-12T07:04:33;7.30;;;6.60;;
1799;SDS011;919;48.274;12.292;2023-08-12T07:07:01;8.53;;;7.13;;
1799;SDS011;919;48.274;12.292;2023-08-12T07:09:27;8.30;;;7.30;;
1799;SDS011;919;48.274;12.292;2023-08-12T07:11:54;6.63;;;5.50;;
1799;SDS011;919;48.274;12.292;2023-08-12T07:14:21;6.30;;;5.80;;
1799;SDS011;919;48.274;12.292;2023-08-12T07:16:48;5.43;;;5.00;;
1799;SDS011;919;48.274;12.292;2023-08-12T07:19:14;6.23;;;5.63;;
1799;SDS011;919;48.274;12.292;2023-08-12T07:21:41;5.37;;;4.97;;
1799;SDS011;919;48.274;12.292;2023-08-12T07:24:09;6.10;;;5.63;;
1799;SDS011;919;48.274;12.292;2023-08-12T07:26:36;7.40;;;6.70;;
1799;SDS011;919;48.274;12.292;2023-08-12T07:29:03;7.67;;;6.43;;
1799;SDS011;919;48.274;12.292;2023-08-12T07:31:30;7.23;;;6.53;;
1799;SDS011;919;48.274;12.292;2023-08-12T07:33:57;8.17;;;7.07;;
1799;SDS011;919;48.274;12.292;2023-08-12T07:36:25;6.70;;;6.20;;
1799;SDS011;919;48.274;12.292;2023-08-12T07:38:52;4.20;;;3.90;;
1799;SDS011;919;48.274;12.292;2023-08-12T07:41:20;4.70;;;4.27;;
1799;SDS011;919;48.274;12.292;2023-08-12T07:43:47;4.33;;;3.93;;
1799;SDS011;919;48.274;12.292;2023-08-12T07:46:23;4.73;;;4.33;;
1799;SDS011;919;48.274;12.292;2023-08-12T07:48:50;4.30;;;4.00;;
1799;SDS011;919;48.274;12.292;2023-08-12T07:51:18;4.60;;;4.20;;
1799;SDS011;919;48.274;12.292;2023-08-12T07:53:47;3.50;;;3.20;;
1799;SDS011;919;48.274;12.292;2023-08-12T07:56:18;7.20;;;5.87;;
1799;SDS011;919;48.274;12.292;2023-08-12T07:58:47;6.20;;;5.60;;
1799;SDS011;919;48.274;12.292;2023-08-12T08:01:15;5.03;;;4.63;;
1799;SDS011;919;48.274;12.292;2023-08-12T08:03:45;4.50;;;3.77;;
1799;SDS011;919;48.274;12.292;2023-08-12T08:06:12;4.87;;;4.47;;
1799;SDS011;919;48.274;12.292;2023-08-12T08:08:39;5.23;;;4.80;;
1799;SDS011;919;48.274;12.292;2023-08-12T08:11:06;5.17;;;4.67;;
1799;SDS011;919;48.274;12.292;2023-08-12T08:13:34;4.47;;;4.07;;
1799;SDS011;919;48.274;12.292;2023-08-12T08:16:01;5.00;;;4.60;;
1799;SDS011;919;48.274;12.292;2023-08-12T08:18:28;3.70;;;3.40;;
1799;SDS011;919;48.274;12.292;2023-08-12T08:20:55;4.33;;;3.90;;
1799;SDS011;919;48.274;12.292;2023-08-12T08:23:24;4.80;;;4.43;;
1799;SDS011;919;48.274;12.292;2023-08-12T08:25:51;4.00;;;3.70;;
1799;SDS011;919;48.274;12.292;2023-08-12T08:28:21;3.70;;;3.40;;
1799;SDS011;919;48.274;12.292;2023-08-12T08:30:50;4.20;;;3.87;;
1799;SDS011;919;48.274;12.292;2023-08-12T08:33:17;4.20;;;3.90;;
1799;SDS011;919;48.274;12.292;2023-08-12T08:35:44;4.23;;;3.73;;
1799;SDS011;919;48.274;12.292;2023-08-12T08:38:12;3.80;;;3.50;;
1799;SDS011;919;48.274;12.292;2023-08-12T08:40:39;4.87;;;4.10;;
1799;SDS011;919;48.274;12.292;2023-08-12T08:43:06;3.53;;;3.27;;
1799;SDS011;919;48.274;12.292;2023-08-12T08:45:36;4.20;;;3.90;;
1799;SDS011;919;48.274;12.292;2023-08-12T08:48:05;4.40;;;3.90;;
1799;SDS011;919;48.274;12.292;2023-08-12T08:50:34;3.73;;;3.43;;
1799;SDS011;919;48.274;12.292;2023-08-12T08:53:03;3.57;;;3.37;;
1799;SDS011;919;48.274;12.292;2023-08-12T08:55:32;5.00;;;3.67;;
1799;SDS011;919;48.274;12.292;2023-08-12T08:58:00;4.03;;;3.40;;
1799;SDS011;919;48.274;12.292;2023-08-12T09:00:27;4.10;;;3.70;;
1799;SDS011;919;48.274;12.292;2023-08-12T09:02:55;5.63;;;4.27;;
1799;SDS011;919;48.274;12.292;2023-08-12T09:05:25;5.23;;;4.83;;
1799;SDS011;919;48.274;12.292;2023-08-12T09:07:53;4.37;;;3.97;;
1799;SDS011;919;48.274;12.292;2023-08-12T09:10:21;4.30;;;4.00;;
1799;SDS011;919;48.274;12.292;2023-08-12T09:12:50;3.90;;;3.60;;
1799;SDS011;919;48.274;12.292;2023-08-12T09:15:18;3.90;;;3.60;;
1799;SDS011;919;48.274;12.292;2023-08-12T09:17:45;4.37;;;4.07;;
1799;SDS011;919;48.274;12.292;2023-08-12T09:20:13;4.20;;;3.90;;
1799;SDS011;919;48.274;12.292;2023-08-12T09:22:41;4.73;;;4.33;;
1799;SDS011;919;48.274;12.292;2023-08-12T09:25:09;4.60;;;3.67;;
1799;SDS011;919;48.274;12.292;2023-08-12T09:27:38;3.80;;;3.50;;
1799;SDS011;919;48.274;12.292;2023-08-12T09:30:06;4.03;;;3.73;;
1799;SDS011;919;48.274;12.292;2023-08-12T09:32:34;3.73;;;3.43;;
1799;SDS011;919;48.274;12.292;2023-08-12T09:35:03;4.37;;;4.07;;
1799;SDS011;919;48.274;12.292;2023-08-12T09:37:31;8.10;;;4.33;;
1799;SDS011;919;48.274;12.292;2023-08-12T09:40:00;4.50;;;4.20;;
1799;SDS011;919;48.274;12.292;2023-08-12T09:42:30;4.77;;;4.37;;
1799;SDS011;919;48.274;12.292;2023-08-12T09:44:59;5.70;;;5.20;;
1799;SDS011;919;48.274;12.292;2023-08-12T09:47:27;4.30;;;3.90;;
1799;SDS011;919;48.274;12.292;2023-08-12T09:49:56;4.63;;;4.23;;
1799;SDS011;919;48.274;12.292;2023-08-12T09:52:24;6.13;;;4.53;;
1799;SDS011;919;48.274;12.292;2023-08-12T09:54:52;3.43;;;3.00;;
1799;SDS011;919;48.274;12.292;2023-08-12T09:57:26;4.90;;;4.60;;
1799;SDS011;919;48.274;12.292;2023-08-12T09:59:57;4.87;;;4.47;;
1799;SDS011;919;48.274;12.292;2023-08-12T10:02:26;4.37;;;4.03;;
1799;SDS011;919;48.274;12.292;2023-08-12T10:04:54;4.80;;;4.30;;
1799;SDS011;919;48.274;12.292;2023-08-12T10:07:23;5.03;;;4.10;;
1799;SDS011;919;48.274;12.292;2023-08-12T10:09:51;4.63;;;4.27;;
1799;SDS011;919;48.274;12.292;2023-08-12T10:12:23;4.77;;;4.37;;
1799;SDS011;919;48.274;12.292;2023-08-12T10:14:51;4.73;;;4.30;;
1799;SDS011;919;48.274;12.292;2023-08-12T10:17:19;4.73;;;4.33;;
1799;SDS011;919;48.274;12.292;2023-08-12T10:19:47;5.13;;;4.73;;
1799;SDS011;919;48.274;12.292;2023-08-12T10:22:21;3.60;;;3.40;;
1799;SDS011;919;48.274;12.292;2023-08-12T10:24:51;4.60;;;4.20;;
1799;SDS011;919;48.274;12.292;2023-08-12T10:27:19;4.47;;;4.10;;
1799;SDS011;919;48.274;12.292;2023-08-12T10:29:46;4.40;;;4.00;;
1799;SDS011;919;48.274;12.292;2023-08-12T10:32:15;5.20;;;4.70;;
1799;SDS011;919;48.274;12.292;2023-08-12T10:34:41;4.77;;;4.40;;
1799;SDS011;919;48.274;12.292;2023-08-12T10:37:09;5.10;;;4.70;;
1799;SDS011;919;48.274;12.292;2023-08-12T10:39:36;5.00;;;4.60;;
1799;SDS011;919;48.274;12.292;2023-08-12T10:42:04;4.40;;;4.00;;
1799;SDS011;919;48.274;12.292;2023-08-12T10:44:38;4.70;;;4.20;;
1799;SDS011;919;48.274;12.292;2023-08-12T10:47:16;4.97;;;4.37;;
1799;SDS011;919;48.274;12.292;2023-08-12T10:49:43;21.27;;;11.37;;
1799;SDS011;919;48.274;12.292;2023-08-12T10:52:25;10.47;;;6.37;;
1799;SDS011;919;48.274;12.292;2023-08-12T10:54:53;15.77;;;10.00;;
1799;SDS011;919;48.274;12.292;2023-08-12T10:57:34;6.10;;;5.40;;
1799;SDS011;919;48.274;12.292;2023-08-12T11:00:04;4.00;;;3.73;;
1799;SDS011;919;48.274;12.292;2023-08-12T11:02:34;5.00;;;4.60;;
1799;SDS011;919;48.274;12.292;2023-08-12T11:05:07;4.10;;;3.80;;
1799;SDS011;919;48.274;12.292;2023-08-12T11:07:37;4.43;;;4.10;;
1799;SDS011;919;48.274;12.292;2023-08-12T11:10:09;4.77;;;4.33;;
1799;SDS011;919;48.274;12.292;2023-08-12T11:12:38;4.40;;;4.10;;
1799;SDS011;919;48.274;12.292;2023-08-12T11:15:07;4.40;;;4.10;;
1799;SDS011;919;48.274;12.292;2023-08-12T11:17:36;4.50;;;3.70;;
1799;SDS011;919;48.274;12.292;2023-08-12T11:20:12;5.00;;;4.70;;
1799;SDS011;919;48.274;12.292;2023-08-12T11:22:40;4.27;;;3.97;;
1799;SDS011;919;48.274;12.292;2023-08-12T11:25:09;4.70;;;4.40;;
1799;SDS011;919;48.274;12.292;2023-08-12T11:27:40;5.10;;;4.70;;
1799;SDS011;919;48.274;12.292;2023-08-12T11:30:09;4.37;;;3.93;;
1799;SDS011;919;48.274;12.292;2023-08-12T11:32:39;4.30;;;3.90;;
1799;SDS011;919;48.274;12.292;2023-08-12T11:35:08;4.20;;;3.90;;
1799;SDS011;919;48.274;12.292;2023-08-12T11:37:37;3.97;;;3.67;;
1799;SDS011;919;48.274;12.292;2023-08-12T11:40:05;4.43;;;4.17;;
1799;SDS011;919;48.274;12.292;2023-08-12T11:42:34;3.80;;;3.50;;
1799;SDS011;919;48.274;12.292;2023-08-12T11:45:01;4.27;;;3.97;;
1799;SDS011;919;48.274;12.292;2023-08-12T11:47:28;4.43;;;4.13;;
1799;SDS011;919;48.274;12.292;2023-08-12T11:49:57;4.07;;;3.77;;
1799;SDS011;919;48.274;12.292;2023-08-12T11:52:24;3.40;;;3.20;;
1799;SDS011;919;48.274;12.292;2023-08-12T11:54:52;4.70;;;4.40;;
1799;SDS011;919;48.274;12.292;2023-08-12T11:57:21;3.70;;;3.50;;
1799;SDS011;919;48.274;12.292;2023-08-12T11:59:49;3.60;;;3.40;;
1799;SDS011;919;48.274;12.292;2023-08-12T12:02:17;4.10;;;3.80;;
1799;SDS011;919;48.274;12.292;2023-08-12T12:04:44;4.90;;;4.60;;
1799;SDS011;919;48.274;12.292;2023-08-12T12:07:20;4.17;;;3.87;;
1799;SDS011;919;48.274;12.292;2023-08-12T12:09:50;3.90;;;3.70;;
1799;SDS011;919;48.274;12.292;2023-08-12T12:12:21;4.77;;;4.47;;
1799;SDS011;919;48.274;12.292;2023-08-12T12:14:48;4.70;;;4.30;;
1799;SDS011;919;48.274;12.292;2023-08-12T12:17:17;4.77;;;4.37;;
1799;SDS011;919;48.274;12.292;2023-08-12T12:19:46;4.60;;;4.20;;
1799;SDS011;919;48.274;12.292;2023-08-12T12:22:13;4.20;;;3.90;;
1799;SDS011;919;48.274;12.292;2023-08-12T12:24:45;5.20;;;4.90;;
1799;SDS011;919;48.274;12.292;2023-08-12T12:27:12;4.20;;;3.90;;
1799;SDS011;919;48.274;12.292;2023-08-12T12:29:39;4.77;;;4.37;;
1799;SDS011;919;48.274;12.292;2023-08-12T12:32:08;4.40;;;4.10;;
1799;SDS011;919;48.274;12.292;2023-08-12T12:34:39;4.40;;;4.10;;
1799;SDS011;919;48.274;12.292;2023-08-12T12:37:07;4.40;;;4.10;;
1799;SDS011;919;48.274;12.292;2023-08-12T12:39:35;4.43;;;4.13;;
1799;SDS011;919;48.274;12.292;2023-08-12T12:42:03;4.50;;;4.13;;
1799;SDS011;919;48.274;12.292;2023-08-12T12:44:30;4.00;;;3.80;;
1799;SDS011;919;48.274;12.292;2023-08-12T12:46:56;4.77;;;4.47;;
1799;SDS011;919;48.274;12.292;2023-08-12T12:49:23;4.30;;;4.00;;
1799;SDS011;919;48.274;12.292;2023-08-12T12:51:50;4.40;;;4.10;;
1799;SDS011;919;48.274;12.292;2023-08-12T12:54:17;4.60;;;4.30;;
1799;SDS011;919;48.274;12.292;2023-08-12T12:56:43;4.53;;;4.20;;
1799;SDS011;919;48.274;12.292;2023-08-12T12:59:12;5.10;;;4.80;;
1799;SDS011;919;48.274;12.292;2023-08-12T13:01:39;4.50;;;4.20;;
1799;SDS011;919;48.274;12.292;2023-08-12T13:04:06;5.30;;;4.20;;
1799;SDS011;919;48.274;12.292;2023-08-12T13:06:33;6.43;;;3.77;;
1799;SDS011;919;48.274;12.292;2023-08-12T13:09:00;4.50;;;4.20;;
1799;SDS011;919;48.274;12.292;2023-08-12T13:11:31;4.13;;;3.83;;
1799;SDS011;919;48.274;12.292;2023-08-12T13:13:59;4.67;;;4.37;;
1799;SDS011;919;48.274;12.292;2023-08-12T13:16:27;4.80;;;4.40;;
1799;SDS011;919;48.274;12.292;2023-08-12T13:18:54;4.40;;;4.10;;
1799;SDS011;919;48.274;12.292;2023-08-12T13:21:23;4.20;;;3.90;;
1799;SDS011;919;48.274;12.292;2023-08-12T13:23:50;4.43;;;4.13;;
1799;SDS011;919;48.274;12.292;2023-08-12T13:26:16;4.50;;;4.20;;
1799;SDS011;919;48.274;12.292;2023-08-12T13:28:43;4.80;;;4.40;;
1799;SDS011;919;48.274;12.292;2023-08-12T13:31:10;4.50;;;4.20;;
1799;SDS011;919;48.274;12.292;2023-08-12T13:33:38;3.30;;;3.10;;
1799;SDS011;919;48.274;12.292;2023-08-12T13:36:05;4.57;;;4.27;;
1799;SDS011;919;48.274;12.292;2023-08-12T13:38:32;4.13;;;3.83;;
1799;SDS011;919;48.274;12.292;2023-08-12T13:40:59;4.67;;;4.37;;
1799;SDS011;919;48.274;12.292;2023-08-12T13:43:25;5.40;;;4.90;;
1799;SDS011;919;48.274;12.292;2023-08-12T13:45:52;3.83;;;3.53;;
1799;SDS011;919;48.274;12.292;2023-08-12T13:48:19;3.70;;;3.40;;
1799;SDS011;919;48.274;12.292;2023-08-12T13:50:47;4.53;;;4.23;;
1799;SDS011;919;48.274;12.292;2023-08-12T13:53:15;5.03;;;4.60;;
1799;SDS011;919;48.274;12.292;2023-08-12T13:55:42;7.10;;;4.23;;
1799;SDS011;919;48.274;12.292;2023-08-12T13:58:09;3.70;;;3.40;;
1799;SDS011;919;48.274;12.292;2023-08-12T14:00:35;4.33;;;3.93;;
1799;SDS011;919;48.274;12.292;2023-08-12T14:03:02;4.43;;;4.13;;
1799;SDS011;919;48.274;12.292;2023-08-12T14:05:30;3.77;;;3.47;;
1799;SDS011;919;48.274;12.292;2023-08-12T14:07:58;4.80;;;4.40;;
1799;SDS011;919;48.274;12.292;2023-08-12T14:10:25;4.40;;;4.10;;
1799;SDS011;919;48.274;12.292;2023-08-12T14:12:51;4.37;;;4.07;;
1799;SDS011;919;48.274;12.292;2023-08-12T14:15:18;4.60;;;4.30;;
1799;SDS011;919;48.274;12.292;2023-08-12T14:17:45;4.63;;;4.33;;
1799;SDS011;919;48.274;12.292;2023-08-12T14:20:12;4.47;;;4.10;;
1799;SDS011;919;48.274;12.292;2023-08-12T14:22:40;4.43;;;4.07;;
1799;SDS011;919;48.274;12.292;2023-08-12T14:25:10;4.00;;;3.80;;
1799;SDS011;919;48.274;12.292;2023-08-12T14:27:37;4.33;;;4.03;;
1799;SDS011;919;48.274;12.292;2023-08-12T14:30:04;3.50;;;3.30;;
1799;SDS011;919;48.274;12.292;2023-08-12T14:32:34;3.30;;;3.10;;
1799;SDS011;919;48.274;12.292;2023-08-12T14:35:01;4.07;;;3.67;;
1799;SDS011;919;48.274;12.292;2023-08-12T14:37:27;3.60;;;3.30;;
1799;SDS011;919;48.274;12.292;2023-08-12T14:39:54;4.47;;;3.47;;
1799;SDS011;919;48.274;12.292;2023-08-12T14:42:22;4.00;;;3.77;;
1799;SDS011;919;48.274;12.292;2023-08-12T14:44:49;3.70;;;3.40;;
1799;SDS011;919;48.274;12.292;2023-08-12T14:47:16;3.73;;;3.43;;
1799;SDS011;919;48.274;12.292;2023-08-12T14:49:44;4.00;;;3.63;;
1799;SDS011;919;48.274;12.292;2023-08-12T14:52:15;4.60;;;4.20;;
1799;SDS011;919;48.274;12.292;2023-08-12T14:54:43;5.00;;;3.50;;
1799;SDS011;919;48.274;12.292;2023-08-12T14:57:10;3.00;;;2.80;;
1799;SDS011;919;48.274;12.292;2023-08-12T14:59:38;3.70;;;3.50;;
1799;SDS011;919;48.274;12.292;2023-08-12T15:02:04;4.00;;;3.30;;
1799;SDS011;919;48.274;12.292;2023-08-12T15:04:32;3.00;;;2.77;;
1799;SDS011;919;48.274;12.292;2023-08-12T15:06:59;3.43;;;3.20;;
1799;SDS011;919;48.274;12.292;2023-08-12T15:09:26;3.83;;;3.53;;
1799;SDS011;919;48.274;12.292;2023-08-12T15:11:53;3.57;;;3.27;;
1799;SDS011;919;48.274;12.292;2023-08-12T15:14:19;3.13;;;2.93;;
1799;SDS011;919;48.274;12.292;2023-08-12T15:16:47;3.87;;;3.60;;
1799;SDS011;919;48.274;12.292;2023-08-12T15:19:14;3.87;;;3.57;;
1799;SDS011;919;48.274;12.292;2023-08-12T15:21:41;3.37;;;3.17;;